Mont-Louis, Canada
Current Conditions -  °F | °C
As of 1:00 AM on Wednesday 28 Jan 2015 (Local Time) from CYGP Reporting Station
Light Snow Light Snow  
Wind Chill: -2°   Ceiling: 1900
Heat Index: 10°   Visibility: 3mi
Dew Point:   Wind: 8mph
Humidity: 79%   Direction: 360°N
Pressure: 29.91"   Gusts: NA
Location:  49.22°N, 65.75°W
Report Text: CYGP 280600Z 36007KT 320V030 3SM -SN DRSN OVC019 M12/M15 A2991 RMK SC8 /S02/ SLP130
Loading
Personal Weather Stations






























Interactive Weather Map New forecast layout! Learn more

10-Day Weather Forecast

Advertisements
Track Severe Weather on mobile